createdAt,value
2018-12-23T00:01:26.303Z,6.80
2018-12-23T00:03:54.839Z,9.13
2018-12-23T00:06:23.402Z,11.20
2018-12-23T00:08:51.971Z,8.07
2018-12-23T00:11:20.585Z,8.53
2018-12-23T00:13:49.190Z,7.30
2018-12-23T00:16:17.790Z,8.53
2018-12-23T00:18:46.328Z,7.97
2018-12-23T00:21:14.980Z,7.00
2018-12-23T00:23:43.525Z,7.93
2018-12-23T00:26:12.077Z,7.87
2018-12-23T00:28:40.596Z,7.20
2018-12-23T00:31:09.212Z,6.63
2018-12-23T00:33:37.900Z,7.70
2018-12-23T00:36:06.449Z,6.53
2018-12-23T00:38:35.011Z,5.57
2018-12-23T00:41:03.700Z,6.73
2018-12-23T00:43:32.479Z,6.53
2018-12-23T00:46:01.097Z,5.17
2018-12-23T00:48:29.660Z,8.17
2018-12-23T00:50:58.332Z,6.70
2018-12-23T00:53:26.870Z,5.53
2018-12-23T00:55:55.601Z,19.17
2018-12-23T00:58:24.162Z,8.33
2018-12-23T01:00:52.699Z,6.33
2018-12-23T01:03:21.297Z,10.27
2018-12-23T01:05:49.805Z,7.67
2018-12-23T01:08:18.357Z,6.23
2018-12-23T01:10:46.896Z,6.37
2018-12-23T01:13:16.472Z,6.07
2018-12-23T01:15:45.184Z,5.53
2018-12-23T01:18:13.766Z,7.00
2018-12-23T01:20:42.377Z,6.57
2018-12-23T01:23:10.900Z,5.50
2018-12-23T01:25:39.442Z,6.30
2018-12-23T01:28:07.976Z,6.43
2018-12-23T01:30:36.544Z,6.20
2018-12-23T01:33:05.068Z,5.20
2018-12-23T01:35:37.115Z,4.47
2018-12-23T01:38:04.196Z,5.07
2018-12-23T01:40:32.751Z,4.63
2018-12-23T01:43:01.267Z,4.30
2018-12-23T01:45:29.820Z,4.57
2018-12-23T01:47:58.344Z,4.33
2018-12-23T01:50:26.887Z,4.13
2018-12-23T01:52:55.474Z,5.67
2018-12-23T01:55:24.021Z,5.60
2018-12-23T01:57:52.548Z,5.83
2018-12-23T02:00:21.068Z,6.47
2018-12-23T02:02:49.649Z,3.60
2018-12-23T02:05:18.156Z,5.37
2018-12-23T02:07:46.657Z,6.20
2018-12-23T02:10:15.178Z,3.30
2018-12-23T02:12:43.740Z,3.90
2018-12-23T02:15:12.385Z,4.03
2018-12-23T02:17:40.936Z,3.77
2018-12-23T02:20:09.448Z,4.77
2018-12-23T02:22:37.961Z,4.40
2018-12-23T02:25:06.541Z,3.37
2018-12-23T02:27:35.044Z,3.27
2018-12-23T02:30:03.571Z,3.97
2018-12-23T02:32:32.484Z,3.20
2018-12-23T02:35:01.109Z,4.57
2018-12-23T02:37:30.403Z,6.50
2018-12-23T02:39:58.965Z,5.87
2018-12-23T02:42:27.501Z,4.87
2018-12-23T02:44:56.035Z,5.93
2018-12-23T02:47:24.581Z,5.23
2018-12-23T02:49:53.095Z,3.87
2018-12-23T02:52:21.613Z,3.10
2018-12-23T02:54:50.136Z,3.63
2018-12-23T02:57:18.663Z,3.90
2018-12-23T02:59:47.261Z,3.30
2018-12-23T03:02:15.821Z,16.07
2018-12-23T03:04:44.387Z,8.70
2018-12-23T03:07:12.932Z,5.30
2018-12-23T03:09:50.201Z,4.50
2018-12-23T03:12:18.720Z,7.63
2018-12-23T03:14:47.247Z,3.93
2018-12-23T03:17:15.783Z,4.73
2018-12-23T03:19:44.295Z,5.10
2018-12-23T03:22:12.793Z,4.80
2018-12-23T03:24:41.365Z,3.73
2018-12-23T03:27:09.898Z,4.03
2018-12-23T03:29:38.412Z,3.97
2018-12-23T03:32:06.942Z,5.13
2018-12-23T03:34:35.448Z,6.57
2018-12-23T03:37:03.980Z,4.30
2018-12-23T03:39:32.545Z,5.80
2018-12-23T03:42:01.082Z,4.53
2018-12-23T03:44:29.612Z,5.93
2018-12-23T03:46:58.249Z,6.63
2018-12-23T03:49:26.896Z,4.13
2018-12-23T03:51:55.463Z,3.77
2018-12-23T03:54:24.086Z,8.63
2018-12-23T03:56:52.623Z,3.73
2018-12-23T03:59:21.194Z,3.80
2018-12-23T04:01:49.717Z,5.50
2018-12-23T04:04:18.253Z,4.90
2018-12-23T04:06:46.773Z,4.43
2018-12-23T04:09:15.301Z,3.83
2018-12-23T04:11:43.820Z,4.07
2018-12-23T04:14:12.344Z,2.90
2018-12-23T04:16:40.916Z,2.93
2018-12-23T04:19:09.466Z,4.30
2018-12-23T04:21:38.006Z,4.00
2018-12-23T04:24:06.537Z,3.60
2018-12-23T04:26:35.085Z,2.90
2018-12-23T04:29:03.579Z,4.53
2018-12-23T04:31:32.125Z,4.23
2018-12-23T04:34:00.613Z,4.33
2018-12-23T04:36:34.029Z,5.33
2018-12-23T04:38:59.681Z,2.83
2018-12-23T04:41:28.172Z,3.80
2018-12-23T04:43:56.717Z,3.80
2018-12-23T04:46:25.265Z,4.47
2018-12-23T04:48:53.876Z,4.60
2018-12-23T04:51:22.404Z,4.17
2018-12-23T04:53:50.923Z,3.97
2018-12-23T04:56:19.457Z,3.33
2018-12-23T04:58:47.957Z,4.40
2018-12-23T05:01:16.473Z,3.90
2018-12-23T05:03:45.004Z,3.57
2018-12-23T05:06:13.564Z,3.30
2018-12-23T05:08:42.038Z,4.17
2018-12-23T05:11:10.566Z,3.13
2018-12-23T05:13:39.093Z,3.20
2018-12-23T05:16:07.605Z,2.63
2018-12-23T05:18:36.131Z,2.80
2018-12-23T05:21:04.654Z,3.73
2018-12-23T05:23:33.144Z,3.17
2018-12-23T05:26:01.688Z,3.47
2018-12-23T05:28:30.199Z,3.40
2018-12-23T05:30:58.688Z,3.03
2018-12-23T05:33:27.237Z,3.37
2018-12-23T05:35:55.907Z,3.80
2018-12-23T05:38:24.421Z,3.80
2018-12-23T05:40:52.927Z,3.53
2018-12-23T05:43:21.427Z,2.13
2018-12-23T05:45:49.965Z,2.20
2018-12-23T05:48:18.464Z,2.20
2018-12-23T05:50:46.965Z,2.23
2018-12-23T05:53:15.480Z,2.93
2018-12-23T05:55:42.957Z,3.63
2018-12-23T05:58:11.487Z,2.33
2018-12-23T06:00:39.989Z,3.60
2018-12-23T06:03:08.535Z,3.90
2018-12-23T06:05:37.093Z,2.87
2018-12-23T06:08:05.632Z,3.07
2018-12-23T06:10:34.214Z,3.37
2018-12-23T06:13:02.744Z,5.53
2018-12-23T06:15:31.266Z,9.23
2018-12-23T06:17:59.785Z,8.90
2018-12-23T06:20:28.273Z,5.97
2018-12-23T06:22:56.831Z,15.97
2018-12-23T06:25:25.360Z,6.93
2018-12-23T06:27:53.896Z,5.03
2018-12-23T06:30:22.503Z,2.47
2018-12-23T06:32:51.125Z,5.90
2018-12-23T06:35:20.029Z,3.77
2018-12-23T06:37:48.601Z,3.50
2018-12-23T06:40:17.520Z,7.77
2018-12-23T06:42:46.125Z,5.03
2018-12-23T06:45:14.629Z,2.63
2018-12-23T06:47:43.155Z,2.40
2018-12-23T06:50:12.406Z,2.77
2018-12-23T06:52:40.944Z,3.80
2018-12-23T06:55:09.500Z,3.93
2018-12-23T06:57:38.032Z,3.23
2018-12-23T07:00:07.405Z,5.10
2018-12-23T07:02:35.969Z,5.43
2018-12-23T07:05:04.957Z,4.20
2018-12-23T07:07:33.473Z,3.87
2018-12-23T07:10:01.996Z,3.70
2018-12-23T07:12:30.579Z,5.07
2018-12-23T07:14:59.671Z,4.57
2018-12-23T07:17:28.482Z,4.43
2018-12-23T07:19:57.044Z,5.70
2018-12-23T07:22:25.546Z,5.23
2018-12-23T07:24:54.108Z,4.87
2018-12-23T07:27:22.664Z,6.07
2018-12-23T07:29:51.169Z,6.23
2018-12-23T07:32:19.710Z,4.53
2018-12-23T07:34:48.267Z,5.70
2018-12-23T07:37:16.774Z,5.50
2018-12-23T07:39:45.340Z,6.33
2018-12-23T07:42:13.892Z,4.90
2018-12-23T07:44:42.473Z,7.67
2018-12-23T07:47:11.002Z,4.27
2018-12-23T07:49:39.599Z,4.00
2018-12-23T07:52:08.133Z,6.07
2018-12-23T07:54:36.650Z,5.93
2018-12-23T07:57:05.204Z,5.97
2018-12-23T07:59:33.778Z,12.67
2018-12-23T08:02:02.417Z,9.77
2018-12-23T08:04:31.027Z,20.57
2018-12-23T08:06:59.794Z,17.97
2018-12-23T08:09:28.391Z,23.87
2018-12-23T08:11:56.944Z,14.27
2018-12-23T08:14:25.671Z,15.50
2018-12-23T08:16:54.276Z,12.37
2018-12-23T08:19:23.376Z,14.50
2018-12-23T08:21:51.909Z,14.80
2018-12-23T08:24:20.484Z,14.87
2018-12-23T08:26:49.125Z,9.60
2018-12-23T08:29:17.672Z,11.00
2018-12-23T08:31:46.227Z,13.73
2018-12-23T08:34:14.778Z,15.03
2018-12-23T08:36:43.308Z,15.67
2018-12-23T08:39:11.829Z,18.30
2018-12-23T08:41:40.392Z,16.13
2018-12-23T08:44:08.929Z,15.23
2018-12-23T08:46:39.346Z,13.40
2018-12-23T08:49:08.058Z,11.20
2018-12-23T08:51:36.597Z,18.07
2018-12-23T08:54:05.133Z,16.63
2018-12-23T08:56:33.709Z,20.77
2018-12-23T08:59:02.240Z,15.83
2018-12-23T09:01:30.846Z,19.87
2018-12-23T09:03:59.382Z,18.43
2018-12-23T09:06:27.960Z,16.43
2018-12-23T09:08:56.529Z,15.07
2018-12-23T09:11:25.107Z,16.70
2018-12-23T09:13:53.697Z,14.43
2018-12-23T09:16:22.273Z,20.83
2018-12-23T09:18:50.785Z,22.90
2018-12-23T09:21:19.311Z,13.30
2018-12-23T09:23:47.898Z,20.83
2018-12-23T09:26:16.448Z,18.03
2018-12-23T09:28:44.983Z,11.73
2018-12-23T09:31:13.537Z,18.40
2018-12-23T09:33:42.086Z,16.47
2018-12-23T09:36:12.058Z,16.00
2018-12-23T09:38:40.629Z,19.70
2018-12-23T09:41:09.166Z,14.60
2018-12-23T09:43:37.694Z,12.80
2018-12-23T09:46:06.244Z,12.63
2018-12-23T09:48:34.788Z,11.80
2018-12-23T09:51:03.296Z,17.37
2018-12-23T09:53:31.840Z,15.03
2018-12-23T09:56:00.368Z,16.43
2018-12-23T09:58:28.943Z,15.80
2018-12-23T10:00:57.481Z,13.47
2018-12-23T10:03:26.025Z,15.40
2018-12-23T10:05:54.561Z,14.00
2018-12-23T10:08:23.101Z,12.97
2018-12-23T10:10:51.600Z,12.33
2018-12-23T10:13:20.152Z,10.20
2018-12-23T10:15:48.668Z,11.10
2018-12-23T10:18:17.243Z,11.70
2018-12-23T10:20:45.776Z,10.63
2018-12-23T10:23:16.231Z,11.37
2018-12-23T10:25:45.052Z,12.63
2018-12-23T10:28:13.873Z,11.80
2018-12-23T10:30:42.571Z,7.40
2018-12-23T10:33:11.120Z,10.87
2018-12-23T10:35:39.672Z,8.40
2018-12-23T10:38:08.199Z,9.37
2018-12-23T10:40:36.721Z,8.17
2018-12-23T10:43:05.234Z,8.13
2018-12-23T10:45:33.785Z,11.40
2018-12-23T10:48:02.361Z,16.07
2018-12-23T10:50:30.978Z,29.70
2018-12-23T10:52:59.530Z,25.63
2018-12-23T10:55:28.087Z,11.07
2018-12-23T10:57:56.602Z,14.27
2018-12-23T11:00:25.105Z,14.90
2018-12-23T11:02:53.728Z,14.10
2018-12-23T11:05:22.283Z,10.67
2018-12-23T11:07:50.830Z,14.27
2018-12-23T11:10:19.333Z,11.70
2018-12-23T11:12:47.949Z,10.17
2018-12-23T11:15:16.573Z,12.00
2018-12-23T11:17:45.238Z,11.50
2018-12-23T11:20:13.776Z,10.13
2018-12-23T11:22:42.286Z,11.43
2018-12-23T11:25:10.845Z,9.97
2018-12-23T11:27:39.866Z,8.30
2018-12-23T11:30:08.968Z,9.97
2018-12-23T11:32:37.485Z,13.53
2018-12-23T11:35:06.018Z,13.03
2018-12-23T11:37:34.596Z,12.43
2018-12-23T11:40:03.125Z,11.53
2018-12-23T11:42:31.680Z,13.10
2018-12-23T11:45:00.260Z,11.03
2018-12-23T11:47:28.845Z,10.57
2018-12-23T11:49:57.405Z,10.33
2018-12-23T11:52:25.923Z,8.50
2018-12-23T11:54:54.492Z,9.17
2018-12-23T11:57:23.710Z,8.17
2018-12-23T11:59:52.238Z,6.60
2018-12-23T12:02:20.765Z,9.90
2018-12-23T12:04:49.274Z,9.87
2018-12-23T12:07:17.804Z,6.90
2018-12-23T12:09:46.324Z,6.73
2018-12-23T12:12:14.832Z,8.90
2018-12-23T12:14:43.374Z,8.67
2018-12-23T12:17:11.862Z,7.73
2018-12-23T12:19:40.393Z,8.03
2018-12-23T12:22:10.007Z,7.37
2018-12-23T12:24:38.520Z,6.60
2018-12-23T12:27:07.053Z,21.33
2018-12-23T12:29:35.792Z,7.83
2018-12-23T12:32:04.327Z,7.20
2018-12-23T12:34:32.839Z,7.47
2018-12-23T12:37:01.632Z,8.87
2018-12-23T12:39:30.178Z,10.27
2018-12-23T12:41:58.721Z,9.83
2018-12-23T12:44:27.414Z,11.97
2018-12-23T12:46:55.970Z,14.53
2018-12-23T12:49:25.341Z,14.17
2018-12-23T12:51:53.897Z,11.60
2018-12-23T12:54:22.458Z,12.93
2018-12-23T12:56:51.051Z,15.53
2018-12-23T12:59:19.663Z,22.43
2018-12-23T13:01:48.201Z,15.00
2018-12-23T13:04:16.957Z,14.37
2018-12-23T13:06:45.715Z,16.30
2018-12-23T13:09:14.309Z,12.60
2018-12-23T13:11:43.086Z,16.60
2018-12-23T13:14:11.738Z,16.03
2018-12-23T13:16:40.337Z,11.50
2018-12-23T13:19:09.009Z,10.63
2018-12-23T13:21:37.861Z,11.83
2018-12-23T13:24:06.484Z,10.77
2018-12-23T13:26:35.220Z,10.00
2018-12-23T13:29:03.854Z,8.87
2018-12-23T13:31:32.439Z,7.53
2018-12-23T13:34:01.008Z,8.70
2018-12-23T13:36:29.551Z,7.50
2018-12-23T13:38:58.082Z,5.83
2018-12-23T13:41:39.458Z,5.67
2018-12-23T13:44:29.020Z,4.97
2018-12-23T13:49:16.262Z,5.80
2018-12-23T13:53:59.325Z,7.10
2018-12-23T13:57:13.892Z,7.00
2018-12-23T14:00:02.450Z,5.50
2018-12-23T14:02:55.744Z,4.63
2018-12-23T14:07:37.123Z,8.37
2018-12-23T14:10:13.933Z,3.67
2018-12-23T14:12:42.488Z,5.43
2018-12-23T14:15:11.021Z,5.27
2018-12-23T14:17:39.556Z,5.17
2018-12-23T14:20:08.065Z,5.40
2018-12-23T14:22:36.760Z,4.97
2018-12-23T14:25:05.328Z,6.00
2018-12-23T14:27:33.860Z,6.53
2018-12-23T14:30:02.437Z,6.93
2018-12-23T14:32:31.653Z,6.27
2018-12-23T14:35:00.235Z,5.63
2018-12-23T14:37:28.893Z,4.47
2018-12-23T14:39:57.908Z,5.83
2018-12-23T14:42:26.414Z,6.43
2018-12-23T14:44:54.951Z,4.20
2018-12-23T14:47:23.483Z,5.90
2018-12-23T14:49:52.055Z,5.27
2018-12-23T14:52:21.056Z,12.00
2018-12-23T14:54:49.630Z,6.03
2018-12-23T14:57:18.157Z,8.57
2018-12-23T14:59:46.763Z,12.60
2018-12-23T15:02:15.281Z,7.20
2018-12-23T15:04:43.833Z,8.27
2018-12-23T15:07:12.377Z,5.67
2018-12-23T15:09:40.928Z,5.40
2018-12-23T15:12:09.463Z,6.03
2018-12-23T15:14:37.993Z,6.60
2018-12-23T15:17:06.517Z,5.07
2018-12-23T15:19:35.123Z,5.63
2018-12-23T15:22:03.660Z,6.87
2018-12-23T15:24:32.240Z,5.40
2018-12-23T15:27:00.897Z,5.47
2018-12-23T15:29:29.447Z,4.63
2018-12-23T15:31:57.968Z,5.27
2018-12-23T15:34:26.517Z,5.13
2018-12-23T15:36:55.045Z,5.97
2018-12-23T15:39:24.534Z,5.20
2018-12-23T15:41:53.049Z,4.83
2018-12-23T15:44:21.574Z,6.27
2018-12-23T15:46:50.245Z,4.97
2018-12-23T15:49:18.796Z,5.60
2018-12-23T15:51:47.326Z,4.37
2018-12-23T15:54:15.872Z,4.70
2018-12-23T15:56:44.409Z,5.30
2018-12-23T15:59:12.930Z,3.70
2018-12-23T16:01:41.472Z,4.63
2018-12-23T16:04:09.985Z,5.60
2018-12-23T16:06:38.688Z,5.30
2018-12-23T16:09:08.517Z,6.30
2018-12-23T16:11:37.371Z,9.17
2018-12-23T16:14:06.059Z,6.30
2018-12-23T16:16:34.608Z,7.20
2018-12-23T16:19:04.156Z,7.97
2018-12-23T16:21:32.756Z,12.03
2018-12-23T16:24:01.331Z,10.70
2018-12-23T16:26:29.841Z,10.93
2018-12-23T16:28:58.409Z,16.03
2018-12-23T16:31:26.969Z,9.83
2018-12-23T16:33:55.565Z,17.37
2018-12-23T16:36:24.181Z,12.63
2018-12-23T16:38:52.717Z,9.80
2018-12-23T16:41:21.269Z,10.47
2018-12-23T16:43:49.840Z,10.93
2018-12-23T16:46:18.471Z,19.20
2018-12-23T16:48:47.650Z,17.80
2018-12-23T16:51:16.189Z,22.60
2018-12-23T16:53:44.738Z,29.63
2018-12-23T16:56:13.256Z,21.20
2018-12-23T16:58:42.074Z,27.10
2018-12-23T17:01:10.650Z,26.37
2018-12-23T17:03:39.206Z,22.03
2018-12-23T17:06:07.746Z,19.13
2018-12-23T17:08:36.309Z,25.27
2018-12-23T17:11:04.896Z,27.73
2018-12-23T17:14:15.059Z,34.30
2018-12-23T17:16:44.274Z,26.13
2018-12-23T17:19:13.513Z,26.30
2018-12-23T17:21:42.682Z,25.30
2018-12-23T17:24:11.848Z,27.67
2018-12-23T17:26:41.075Z,16.83
2018-12-23T17:29:10.318Z,16.67
2018-12-23T17:31:39.617Z,14.53
2018-12-23T17:34:08.786Z,11.00
2018-12-23T17:36:38.185Z,19.67
2018-12-23T17:39:08.171Z,17.77
2018-12-23T17:41:37.387Z,13.50
2018-12-23T17:44:06.669Z,15.37
2018-12-23T17:46:35.940Z,16.97
2018-12-23T17:49:05.167Z,16.67
2018-12-23T17:51:34.417Z,16.20
2018-12-23T17:54:04.102Z,17.53
2018-12-23T17:56:33.378Z,15.40
2018-12-23T17:59:02.646Z,14.40
2018-12-23T18:01:31.839Z,23.37
2018-12-23T18:04:02.383Z,16.77
2018-12-23T18:06:31.786Z,22.50
2018-12-23T18:09:01.291Z,14.70
2018-12-23T18:11:30.569Z,19.33
2018-12-23T18:13:59.838Z,15.73
2018-12-23T18:16:29.037Z,20.77
2018-12-23T18:18:58.448Z,26.07
2018-12-23T18:21:28.034Z,39.10
2018-12-23T18:23:57.409Z,38.63
2018-12-23T18:26:26.868Z,32.63
2018-12-23T18:29:07.166Z,55.30
2018-12-23T18:31:36.429Z,38.90
2018-12-23T18:34:05.753Z,34.70
2018-12-23T18:36:37.238Z,37.33
2018-12-23T18:39:08.722Z,34.33
2018-12-23T18:41:38.006Z,33.30
2018-12-23T18:44:18.893Z,34.27
2018-12-23T18:46:49.510Z,33.30
2018-12-23T18:49:20.539Z,33.00
2018-12-23T18:51:49.984Z,35.73
2018-12-23T18:54:19.170Z,35.93
2018-12-23T18:56:50.086Z,38.13
2018-12-23T18:59:22.029Z,36.13
2018-12-23T19:01:59.466Z,31.43
2018-12-23T19:04:28.834Z,38.83
2018-12-23T19:06:58.427Z,29.33
2018-12-23T19:09:50.501Z,38.17
2018-12-23T19:12:46.686Z,39.63
2018-12-23T19:16:03.770Z,35.60
2018-12-23T19:19:07.593Z,39.53
2018-12-23T19:22:26.042Z,32.63
2018-12-23T19:25:38.432Z,32.43
2018-12-23T19:28:40.862Z,33.40
2018-12-23T19:31:49.050Z,32.10
2018-12-23T19:34:45.847Z,34.67
2018-12-23T19:37:49.109Z,32.87
2018-12-23T19:41:01.907Z,33.07
2018-12-23T19:43:59.466Z,23.83
2018-12-23T19:47:12.483Z,36.40
2018-12-23T19:50:31.173Z,46.40
2018-12-23T19:53:41.294Z,39.80
2018-12-23T19:56:43.661Z,44.10
2018-12-23T19:59:58.986Z,43.53
2018-12-23T20:03:21.269Z,52.13
2018-12-23T20:06:36.120Z,45.77
2018-12-23T20:09:50.135Z,93.97
2018-12-23T20:12:55.174Z,135.50
2018-12-23T20:16:08.427Z,110.17
2018-12-23T20:19:07.636Z,121.57
2018-12-23T20:22:14.113Z,118.43
2018-12-23T20:25:36.885Z,113.73
2018-12-23T20:28:49.413Z,99.90
2018-12-23T20:31:49.962Z,97.90
2018-12-23T20:35:06.246Z,83.50
2018-12-23T20:37:52.982Z,95.63
2018-12-23T20:41:07.477Z,90.87
2018-12-23T20:44:16.348Z,98.43
2018-12-23T20:47:20.807Z,87.53
2018-12-23T20:50:37.499Z,85.93
2018-12-23T20:53:38.387Z,79.27
2018-12-23T20:56:42.323Z,67.13
2018-12-23T20:59:59.018Z,67.37
2018-12-23T21:03:21.546Z,63.87
2018-12-23T21:06:27.843Z,63.60
2018-12-23T21:09:38.134Z,55.17
2018-12-23T21:13:01.214Z,55.30
2018-12-23T21:16:06.367Z,62.07
2018-12-23T21:19:14.849Z,51.40
2018-12-23T21:22:10.916Z,49.57
2018-12-23T21:25:12.419Z,49.10
2018-12-23T21:28:04.513Z,45.73
2018-12-23T21:31:11.753Z,45.53
2018-12-23T21:34:21.694Z,52.80
2018-12-23T21:37:29.302Z,38.73
2018-12-23T21:41:01.157Z,45.07
2018-12-23T21:44:06.450Z,40.70
2018-12-23T21:47:02.566Z,37.07
2018-12-23T21:50:27.251Z,47.70
2018-12-23T21:53:21.674Z,43.17
2018-12-23T21:56:40.389Z,39.60
2018-12-23T21:59:55.464Z,43.63
2018-12-23T22:03:08.293Z,50.03
2018-12-23T22:06:05.779Z,38.53
2018-12-23T22:09:13.988Z,34.73
2018-12-23T22:12:42.527Z,34.43
2018-12-23T22:15:11.846Z,38.87
2018-12-23T22:17:41.037Z,35.33
2018-12-23T22:20:10.198Z,37.77
2018-12-23T22:22:39.411Z,39.23
2018-12-23T22:25:08.716Z,39.53
2018-12-23T22:27:38.002Z,31.17
2018-12-23T22:30:07.329Z,34.23
2018-12-23T22:32:36.883Z,35.53
2018-12-23T22:35:06.026Z,28.80
2018-12-23T22:37:35.291Z,30.70
2018-12-23T22:40:04.758Z,29.67
2018-12-23T22:42:34.082Z,31.17
2018-12-23T22:45:03.344Z,29.57
2018-12-23T22:47:32.538Z,27.37
2018-12-23T22:50:01.794Z,32.07
2018-12-23T22:52:31.014Z,32.97
2018-12-23T22:55:00.206Z,31.47
2018-12-23T22:57:29.971Z,27.07
2018-12-23T22:59:59.185Z,29.03
2018-12-23T23:02:28.405Z,27.70
2018-12-23T23:04:57.728Z,25.93
2018-12-23T23:07:26.947Z,27.20
2018-12-23T23:09:56.169Z,26.13
2018-12-23T23:12:25.453Z,30.97
2018-12-23T23:14:54.720Z,26.37
2018-12-23T23:17:23.947Z,27.23
2018-12-23T23:19:53.498Z,26.13
2018-12-23T23:22:22.719Z,26.97
2018-12-23T23:24:51.979Z,29.00
2018-12-23T23:27:21.204Z,26.00
2018-12-23T23:29:50.433Z,24.87
2018-12-23T23:32:21.917Z,23.70
2018-12-23T23:34:51.141Z,23.27
2018-12-23T23:37:20.366Z,23.73
2018-12-23T23:39:49.630Z,23.50
2018-12-23T23:42:18.857Z,21.07
2018-12-23T23:44:48.082Z,22.27
2018-12-23T23:47:17.926Z,22.27
2018-12-23T23:49:47.165Z,21.37
2018-12-23T23:52:16.417Z,25.88
2018-12-23T23:54:45.687Z,21.93
2018-12-23T23:57:14.862Z,24.00
2018-12-23T23:59:44.504Z,20.53
